Time;durP1;ratioP1;P1;durP2;ratioP2;P2;SDS_P1;SDS_P2;PMS_P1;PMS_P2;Temp;Humidity;BMP_temperature;BMP_pressure;BME280_temperature;BME280_humidity;BME280_pressure;Samples;Min_cycle;Max_cycle;Signal;HPM_P1;HPM_P2
2022/04/27 00:00:37;;;;;;;12.25;7.05;;;1.00;99.90;;;;;;5069424;28;20052;-49
2022/04/27 00:03:05;;;;;;;16.70;8.18;;;1.00;99.90;;;;;;5069792;28;20093;-52
2022/04/27 00:05:32;;;;;;;14.60;9.15;;;1.00;99.90;;;;;;5069945;28;20044;-53
2022/04/27 00:07:58;;;;;;;14.00;8.35;;;0.90;99.90;;;;;;5069356;28;20476;-51
2022/04/27 00:10:24;;;;;;;17.17;8.88;;;0.90;99.90;;;;;;5069599;28;20051;-51
2022/04/27 00:12:50;;;;;;;16.63;9.15;;;1.00;99.90;;;;;;5068615;28;20052;-51
2022/04/27 00:15:17;;;;;;;17.52;8.80;;;0.90;99.90;;;;;;5068674;28;20041;-50
2022/04/27 00:17:42;;;;;;;16.92;8.98;;;0.80;99.90;;;;;;5068620;28;20040;-50
2022/04/27 00:20:09;;;;;;;10.63;8.18;;;0.80;99.90;;;;;;5068724;28;20391;-53
2022/04/27 00:22:36;;;;;;;13.43;8.10;;;0.80;99.90;;;;;;5068573;28;20072;-50
2022/04/27 00:25:05;;;;;;;14.93;7.90;;;0.60;99.90;;;;;;5069015;28;20040;-54
2022/04/27 00:27:32;;;;;;;13.55;8.55;;;0.60;99.90;;;;;;5068767;28;20036;-49
2022/04/27 00:29:58;;;;;;;18.77;10.32;;;0.50;99.90;;;;;;5068516;28;20051;-49
2022/04/27 00:32:24;;;;;;;18.10;8.68;;;0.60;99.90;;;;;;5067981;28;20076;-50
2022/04/27 00:34:50;;;;;;;15.73;8.40;;;0.50;99.90;;;;;;5068111;28;20444;-50
2022/04/27 00:37:18;;;;;;;18.58;9.68;;;0.50;99.90;;;;;;5068513;28;20091;-49
2022/04/27 00:39:45;;;;;;;13.70;8.55;;;0.40;99.90;;;;;;5068099;28;20048;-50
2022/04/27 00:42:19;;;;;;;15.05;8.68;;;0.40;99.90;;;;;;5068432;28;20142;-49
2022/04/27 00:44:46;;;;;;;18.10;10.35;;;0.40;99.90;;;;;;5067912;28;20079;-48
2022/04/27 00:47:13;;;;;;;22.50;12.00;;;0.40;99.90;;;;;;5068395;28;20503;-52
2022/04/27 00:49:46;;;;;;;21.58;10.23;;;0.50;99.90;;;;;;5067611;28;20036;-49
2022/04/27 00:52:14;;;;;;;17.10;10.98;;;0.50;99.90;;;;;;5069387;28;20129;-49
2022/04/27 00:54:41;;;;;;;21.40;10.43;;;0.50;99.90;;;;;;5072487;28;20121;-50
2022/04/27 00:57:07;;;;;;;19.10;9.90;;;0.50;99.90;;;;;;5072386;28;20076;-49
2022/04/27 00:59:33;;;;;;;25.95;9.73;;;0.40;99.90;;;;;;5072154;28;20032;-49
2022/04/27 01:01:59;;;;;;;17.52;10.15;;;0.30;99.90;;;;;;5072037;28;20090;-48
2022/04/27 01:04:25;;;;;;;19.60;10.82;;;0.30;99.90;;;;;;5071635;28;20037;-49
2022/04/27 01:06:51;;;;;;;25.55;10.50;;;0.40;99.90;;;;;;5072232;28;20532;-48
2022/04/27 01:09:18;;;;;;;19.88;10.80;;;0.30;99.90;;;;;;5072567;28;20074;-51
2022/04/27 01:11:44;;;;;;;22.20;11.15;;;0.30;99.90;;;;;;5072120;28;20573;-49
2022/04/27 01:14:10;;;;;;;17.48;9.68;;;0.30;99.90;;;;;;5072113;28;20048;-50
2022/04/27 01:16:36;;;;;;;18.50;10.13;;;0.40;99.90;;;;;;5072190;28;20047;-52
2022/04/27 01:19:02;;;;;;;17.77;10.27;;;0.40;99.90;;;;;;5071717;28;20076;-52
2022/04/27 01:21:28;;;;;;;15.90;9.02;;;0.30;99.90;;;;;;5071857;28;20113;-49
2022/04/27 01:23:54;;;;;;;21.40;10.00;;;0.30;99.90;;;;;;5071351;28;20048;-50
2022/04/27 01:26:20;;;;;;;15.05;8.57;;;0.20;99.90;;;;;;5071595;28;20052;-49
2022/04/27 01:28:46;;;;;;;14.60;8.98;;;0.20;99.90;;;;;;5071668;28;20119;-50
2022/04/27 01:31:12;;;;;;;22.55;9.95;;;0.20;99.90;;;;;;5071352;28;20513;-48
2022/04/27 01:33:38;;;;;;;19.27;8.23;;;0.10;99.90;;;;;;5071473;28;20048;-50
2022/04/27 01:36:06;;;;;;;15.27;8.23;;;0.10;99.90;;;;;;5071259;28;20063;-49
2022/04/27 01:38:40;;;;;;;16.52;9.35;;;0.10;99.90;;;;;;5071837;28;20064;-50
2022/04/27 01:41:06;;;;;;;16.83;8.68;;;0.00;99.90;;;;;;5071321;28;20519;-51
2022/04/27 01:43:34;;;;;;;15.50;8.98;;;-0.10;99.90;;;;;;5071308;28;20036;-50
2022/04/27 01:46:00;;;;;;;22.55;9.35;;;-0.10;99.90;;;;;;5070981;28;20800;-49
2022/04/27 01:48:27;;;;;;;18.67;9.70;;;-0.20;99.90;;;;;;5071193;28;20530;-48
2022/04/27 01:50:53;;;;;;;19.45;9.60;;;-0.20;99.90;;;;;;5071405;28;20047;-49
2022/04/27 01:56:04;;;;;;;17.42;8.90;;;-0.20;99.90;;;;;;5071183;28;20705;-50
2022/04/27 01:58:30;;;;;;;16.13;9.07;;;-0.20;99.90;;;;;;5071062;28;20045;-50
2022/04/27 02:00:57;;;;;;;17.27;9.40;;;-0.20;99.90;;;;;;5070857;28;20444;-48
2022/04/27 02:03:24;;;;;;;17.33;9.68;;;-0.20;99.90;;;;;;5069955;28;20097;-49
2022/04/27 02:05:52;;;;;;;16.20;8.82;;;-0.10;99.90;;;;;;5070108;28;20055;-48
2022/04/27 02:08:18;;;;;;;16.85;9.70;;;0.00;99.90;;;;;;5071054;28;20098;-49
2022/04/27 02:10:44;;;;;;;14.68;9.07;;;0.10;99.90;;;;;;5071342;28;20121;-51
2022/04/27 02:13:11;;;;;;;23.42;10.82;;;0.20;99.90;;;;;;5070942;28;20040;-49
2022/04/27 02:15:37;;;;;;;18.55;10.63;;;0.40;99.90;;;;;;5071180;28;20211;-49
2022/04/27 02:18:04;;;;;;;22.08;10.82;;;0.50;99.90;;;;;;5070938;28;20048;-51
2022/04/27 02:20:30;;;;;;;20.80;9.60;;;0.60;99.90;;;;;;5070743;28;20048;-50
2022/04/27 02:22:56;;;;;;;18.60;10.38;;;0.70;99.90;;;;;;5070785;28;20146;-49
2022/04/27 02:25:22;;;;;;;18.42;10.38;;;0.80;99.90;;;;;;5070462;28;20481;-49
2022/04/27 02:27:52;;;;;;;20.50;10.43;;;1.00;99.90;;;;;;5070839;28;20502;-49
2022/04/27 02:30:21;;;;;;;21.33;10.48;;;1.10;99.90;;;;;;5070674;28;20055;-51
2022/04/27 02:32:47;;;;;;;18.38;10.68;;;1.20;99.90;;;;;;5070107;28;20052;-50
2022/04/27 02:35:14;;;;;;;20.70;10.32;;;1.30;99.90;;;;;;5070018;28;20056;-51
2022/04/27 02:37:40;;;;;;;19.10;10.60;;;1.30;99.90;;;;;;5070665;28;20064;-48
2022/04/27 02:40:08;;;;;;;20.60;10.73;;;1.40;99.90;;;;;;5070219;28;20053;-49
2022/04/27 02:42:34;;;;;;;21.35;10.90;;;1.50;99.90;;;;;;5070346;28;20036;-49
2022/04/27 02:45:00;;;;;;;19.55;10.88;;;1.60;99.90;;;;;;5070473;28;20056;-52
2022/04/27 02:47:26;;;;;;;23.27;11.75;;;1.70;99.90;;;;;;5068993;28;20043;-49
2022/04/27 02:52:36;;;;;;;22.85;12.35;;;1.60;99.90;;;;;;5070609;28;20111;-51
2022/04/27 02:55:03;;;;;;;21.95;11.20;;;1.90;99.90;;;;;;5069053;28;20072;-49
2022/04/27 02:57:28;;;;;;;23.00;11.82;;;2.00;99.90;;;;;;5070777;28;20044;-51
2022/04/27 02:59:55;;;;;;;23.25;11.52;;;2.10;99.90;;;;;;5070620;28;20048;-49
2022/04/27 03:02:20;;;;;;;22.15;12.18;;;2.20;99.90;;;;;;5070719;28;20037;-51
2022/04/27 03:04:46;;;;;;;18.17;10.77;;;2.30;99.90;;;;;;5070373;28;20052;-52
2022/04/27 03:07:12;;;;;;;17.58;10.00;;;2.30;99.90;;;;;;5070087;28;20036;-48
2022/04/27 03:09:37;;;;;;;17.45;10.30;;;2.40;99.90;;;;;;5069721;28;20451;-48
2022/04/27 03:12:04;;;;;;;21.77;10.80;;;2.50;99.90;;;;;;5069156;28;20059;-48
2022/04/27 03:14:29;;;;;;;19.92;9.82;;;2.50;99.90;;;;;;5069691;28;20056;-51
2022/04/27 03:16:56;;;;;;;16.52;10.32;;;2.50;99.90;;;;;;5069647;28;20045;-49
2022/04/27 03:19:22;;;;;;;17.23;9.80;;;2.60;99.90;;;;;;5069543;28;20076;-50
2022/04/27 03:21:48;;;;;;;16.52;10.23;;;2.60;99.90;;;;;;5069692;28;20040;-50
2022/04/27 03:24:14;;;;;;;21.65;10.13;;;2.70;99.90;;;;;;5069216;28;20047;-50
2022/04/27 03:26:40;;;;;;;19.25;10.35;;;2.70;99.90;;;;;;5069503;28;20057;-50
2022/04/27 03:29:05;;;;;;;17.02;10.45;;;2.70;99.90;;;;;;5069876;28;20028;-49
2022/04/27 03:31:32;;;;;;;17.13;10.75;;;2.80;99.90;;;;;;5069554;28;20116;-51
2022/04/27 03:33:58;;;;;;;14.57;9.93;;;2.80;99.90;;;;;;5069814;28;20483;-50
2022/04/27 03:36:24;;;;;;;17.35;9.90;;;2.80;99.90;;;;;;5069285;28;20117;-49
2022/04/27 03:38:50;;;;;;;21.63;10.63;;;2.90;99.90;;;;;;5069807;28;20119;-49
2022/04/27 03:41:22;;;;;;;17.35;10.20;;;2.90;99.90;;;;;;5069699;28;20051;-52
2022/04/27 03:43:48;;;;;;;24.10;11.27;;;2.90;99.90;;;;;;5069853;28;20331;-49
2022/04/27 03:46:14;;;;;;;17.70;10.25;;;3.00;99.90;;;;;;5069362;28;20482;-49
2022/04/27 03:48:40;;;;;;;19.15;9.40;;;3.00;99.90;;;;;;5069452;28;20303;-53
2022/04/27 03:51:06;;;;;;;19.10;11.05;;;3.00;99.90;;;;;;5068889;28;20495;-51
2022/04/27 03:53:32;;;;;;;16.05;10.43;;;3.00;99.90;;;;;;5069389;28;20151;-51
2022/04/27 03:55:58;;;;;;;19.08;11.07;;;3.10;99.90;;;;;;5069492;28;20181;-48
2022/04/27 03:58:23;;;;;;;18.33;10.38;;;3.10;99.90;;;;;;5068559;28;20048;-49
2022/04/27 04:00:49;;;;;;;19.55;9.65;;;3.20;99.90;;;;;;5068731;28;20044;-49
2022/04/27 04:03:14;;;;;;;16.38;9.75;;;3.20;99.90;;;;;;5068667;28;20047;-49
2022/04/27 04:05:41;;;;;;;17.13;9.95;;;3.30;99.90;;;;;;5069089;28;20047;-48
2022/04/27 04:08:07;;;;;;;16.05;10.07;;;3.30;99.90;;;;;;5069026;28;20040;-50
2022/04/27 04:10:33;;;;;;;12.82;9.55;;;3.30;99.90;;;;;;5069070;28;20494;-50
2022/04/27 04:12:58;;;;;;;14.68;9.05;;;3.30;99.90;;;;;;5069174;28;20513;-51
2022/04/27 04:15:24;;;;;;;16.58;9.40;;;3.40;99.90;;;;;;5068511;28;20044;-49
2022/04/27 04:17:50;;;;;;;17.20;9.93;;;3.40;99.90;;;;;;5068948;28;20040;-50
2022/04/27 04:20:17;;;;;;;18.70;9.43;;;3.50;99.90;;;;;;5068723;28;20122;-49
2022/04/27 04:22:43;;;;;;;19.92;9.57;;;3.50;99.90;;;;;;5068598;28;20047;-48
2022/04/27 04:30:39;;;;;;;17.40;10.40;;;3.60;99.90;;;;;;5067756;28;20114;-48
2022/04/27 04:33:05;;;;;;;16.30;9.65;;;3.70;99.90;;;;;;5068696;28;20040;-48
2022/04/27 04:35:31;;;;;;;15.57;9.32;;;3.70;99.90;;;;;;5067919;28;20136;-49
2022/04/27 04:37:57;;;;;;;15.77;10.57;;;3.80;99.90;;;;;;5068746;28;20057;-50
2022/04/27 04:40:22;;;;;;;18.10;10.55;;;3.70;99.90;;;;;;5069083;28;20450;-50
2022/04/27 04:42:48;;;;;;;18.23;10.82;;;4.00;99.90;;;;;;5068928;28;20072;-52
2022/04/27 04:45:14;;;;;;;16.02;11.05;;;4.00;99.90;;;;;;5068533;28;20037;-49
2022/04/27 04:47:42;;;;;;;20.70;11.77;;;4.10;99.90;;;;;;5068333;28;20052;-49
2022/04/27 04:50:09;;;;;;;16.17;10.30;;;4.10;99.90;;;;;;5068687;28;20036;-50
2022/04/27 04:52:35;;;;;;;17.77;11.00;;;4.20;99.90;;;;;;5067402;28;20488;-50
2022/04/27 04:55:00;;;;;;;21.60;12.05;;;4.30;99.90;;;;;;5067999;28;20090;-48
2022/04/27 04:57:26;;;;;;;18.60;10.75;;;6.00;99.90;;;;;;5067475;28;20135;-49
2022/04/27 04:59:52;;;;;;;22.17;11.95;;;4.40;99.90;;;;;;5068206;28;20037;-50
2022/04/27 05:02:18;;;;;;;18.65;10.48;;;4.50;99.90;;;;;;5068019;28;20119;-49
2022/04/27 05:04:43;;;;;;;21.77;12.38;;;4.60;99.90;;;;;;5068592;28;20048;-50
2022/04/27 05:07:09;;;;;;;18.27;10.85;;;4.60;99.90;;;;;;5068444;28;20489;-50
2022/04/27 05:09:35;;;;;;;24.15;11.63;;;4.70;99.90;;;;;;5067937;28;20039;-49
2022/04/27 05:12:01;;;;;;;17.45;11.88;;;4.80;99.90;;;;;;5068432;28;20084;-49
2022/04/27 05:14:26;;;;;;;17.70;11.85;;;4.90;99.90;;;;;;5068027;28;20040;-49
2022/04/27 05:16:52;;;;;;;17.13;11.27;;;4.90;99.90;;;;;;5068507;28;20079;-49
2022/04/27 05:19:17;;;;;;;21.08;12.10;;;5.00;99.90;;;;;;5068183;28;20058;-50
2022/04/27 05:21:43;;;;;;;22.08;11.68;;;5.10;99.90;;;;;;5068099;28;20040;-51
2022/04/27 05:24:11;;;;;;;22.73;11.80;;;4.80;99.90;;;;;;5068183;28;20040;-50
2022/04/27 05:26:37;;;;;;;22.08;12.60;;;5.20;99.90;;;;;;5066084;28;20464;-50
2022/04/27 05:31:57;;;;;;;18.30;12.20;;;5.30;99.90;;;;;;5067435;28;20202;-49
2022/04/27 05:34:33;;;;;;;27.40;12.15;;;5.40;99.90;;;;;;5068094;28;20048;-51
2022/04/27 05:37:02;;;;;;;18.25;10.98;;;5.30;99.90;;;;;;5067675;28;20053;-49
2022/04/27 05:39:29;;;;;;;19.52;11.75;;;5.50;99.90;;;;;;5070819;28;20059;-52
2022/04/27 05:41:55;;;;;;;16.20;10.60;;;5.40;99.90;;;;;;5071939;28;20049;-50
2022/04/27 05:44:22;;;;;;;17.80;11.63;;;5.70;99.90;;;;;;5071462;28;20409;-50
2022/04/27 05:46:53;;;;;;;19.17;11.32;;;5.70;99.90;;;;;;5071734;28;20044;-53
2022/04/27 05:49:19;;;;;;;20.30;11.18;;;6.50;99.90;;;;;;5071259;28;20503;-52
2022/04/27 05:51:45;;;;;;;16.73;10.23;;;3.90;99.90;;;;;;5071271;28;20044;-50
2022/04/27 05:54:13;;;;;;;17.42;12.10;;;5.90;99.90;;;;;;5071506;28;20115;-49
2022/04/27 05:56:40;;;;;;;23.73;11.40;;;6.00;99.90;;;;;;5071116;28;20064;-51
2022/04/27 05:59:09;;;;;;;19.10;11.27;;;5.90;99.90;;;;;;5071472;28;20066;-51
2022/04/27 06:01:36;;;;;;;16.15;10.70;;;6.00;99.90;;;;;;5071292;28;20044;-50
2022/04/27 06:04:01;;;;;;;15.68;10.38;;;6.00;99.90;;;;;;5071217;28;20079;-50
2022/04/27 06:06:27;;;;;;;16.77;11.18;;;6.00;99.90;;;;;;5071457;28;20910;-49
2022/04/27 06:08:53;;;;;;;19.95;10.82;;;6.00;99.90;;;;;;5070787;28;20036;-50
2022/04/27 06:11:19;;;;;;;19.20;12.07;;;7.00;99.90;;;;;;5071539;28;20048;-50
2022/04/27 06:13:47;;;;;;;14.95;10.77;;;6.40;99.90;;;;;;5071282;28;20085;-51
2022/04/27 06:16:13;;;;;;;15.40;10.77;;;7.30;99.90;;;;;;5071470;28;20075;-49
2022/04/27 06:18:40;;;;;;;18.20;10.63;;;6.50;99.90;;;;;;5070885;28;20479;-51
2022/04/27 06:21:09;;;;;;;16.58;10.95;;;6.80;99.90;;;;;;5071249;28;20036;-50
2022/04/27 06:23:37;;;;;;;17.00;10.75;;;6.60;99.90;;;;;;5070472;28;20040;-51
2022/04/27 06:26:04;;;;;;;16.38;11.13;;;6.90;99.90;;;;;;5071240;28;20045;-48
2022/04/27 06:28:29;;;;;;;16.38;11.30;;;7.30;99.90;;;;;;5070774;28;20391;-48
2022/04/27 06:30:55;;;;;;;17.15;10.75;;;7.80;99.90;;;;;;5070179;28;20036;-48
2022/04/27 06:33:20;;;;;;;15.35;10.35;;;7.20;99.90;;;;;;5070568;28;20556;-52
2022/04/27 06:35:46;;;;;;;18.25;10.80;;;8.00;99.90;;;;;;5070543;28;20056;-48
2022/04/27 06:38:12;;;;;;;17.30;10.50;;;7.60;99.90;;;;;;5070991;28;20753;-50
2022/04/27 06:40:38;;;;;;;15.38;10.48;;;7.50;99.90;;;;;;5070682;28;20109;-49
2022/04/27 06:43:03;;;;;;;17.25;11.68;;;7.60;99.90;;;;;;5070245;28;20415;-49
2022/04/27 06:45:31;;;;;;;13.23;9.43;;;7.70;99.90;;;;;;5070007;28;20044;-49
2022/04/27 06:47:59;;;;;;;16.30;9.88;;;7.70;99.90;;;;;;5069279;28;20044;-52
2022/04/27 06:50:25;;;;;;;23.40;10.32;;;7.90;99.90;;;;;;5070216;28;20072;-50
2022/04/27 06:52:52;;;;;;;15.15;9.30;;;8.10;99.90;;;;;;5070293;28;20440;-51
2022/04/27 06:55:18;;;;;;;15.35;9.32;;;8.30;99.90;;;;;;5070609;28;20044;-50
2022/04/27 06:57:44;;;;;;;15.63;10.00;;;8.30;99.90;;;;;;5070249;28;20551;-51
2022/04/27 07:00:12;;;;;;;13.25;9.02;;;8.50;99.90;;;;;;5070149;28;20059;-49
2022/04/27 07:02:38;;;;;;;11.57;7.78;;;8.40;99.90;;;;;;5070076;28;20113;-50
2022/04/27 07:05:05;;;;;;;14.48;8.20;;;8.90;99.90;;;;;;5070536;28;20056;-50
2022/04/27 07:07:33;;;;;;;10.85;8.20;;;8.70;99.90;;;;;;5068563;28;20398;-49
2022/04/27 07:09:59;;;;;;;10.55;7.78;;;8.80;99.90;;;;;;5070225;28;20132;-51
2022/04/27 07:12:25;;;;;;;16.08;7.80;;;8.90;99.90;;;;;;5070309;28;20044;-49
2022/04/27 07:14:54;;;;;;;11.27;7.88;;;8.80;99.90;;;;;;5069893;28;20086;-52
2022/04/27 07:17:20;;;;;;;12.18;6.40;;;9.20;99.90;;;;;;5070345;28;20041;-52
2022/04/27 07:19:45;;;;;;;12.90;7.53;;;9.90;99.90;;;;;;5069779;28;20044;-50
2022/04/27 07:22:12;;;;;;;11.82;6.93;;;10.10;99.90;;;;;;5070106;28;20044;-54
2022/04/27 07:24:38;;;;;;;14.15;6.00;;;9.60;99.90;;;;;;5068788;28;20052;-50
2022/04/27 07:27:05;;;;;;;10.00;5.63;;;9.70;99.90;;;;;;5070188;28;20040;-50
2022/04/27 07:29:30;;;;;;;8.90;5.25;;;10.50;99.90;;;;;;5069719;28;20029;-51
2022/04/27 07:31:56;;;;;;;9.30;4.95;;;10.00;99.90;;;;;;5069445;28;20396;-50
2022/04/27 07:34:22;;;;;;;8.65;4.72;;;10.10;99.90;;;;;;5069437;28;20403;-51
2022/04/27 07:36:48;;;;;;;8.93;4.72;;;10.00;99.90;;;;;;5068893;28;20414;-48
2022/04/27 07:39:14;;;;;;;9.38;5.07;;;10.00;99.90;;;;;;5069416;28;20060;-52
2022/04/27 07:41:39;;;;;;;7.32;5.07;;;10.30;99.90;;;;;;5068941;28;20048;-51
2022/04/27 07:44:08;;;;;;;8.75;5.00;;;10.90;99.90;;;;;;5069839;28;20122;-51
2022/04/27 07:46:34;;;;;;;5.10;4.07;;;10.40;99.90;;;;;;5069717;28;20048;-52
2022/04/27 07:48:59;;;;;;;5.43;4.07;;;10.70;99.90;;;;;;5068997;28;20055;-49
2022/04/27 07:51:25;;;;;;;7.15;4.80;;;10.70;99.90;;;;;;5069162;28;20048;-52
2022/04/27 07:53:51;;;;;;;10.13;5.00;;;11.10;99.90;;;;;;5068395;28;20093;-51
2022/04/27 07:56:16;;;;;;;9.93;4.40;;;11.20;99.90;;;;;;5066495;28;20461;-50
2022/04/27 07:58:42;;;;;;;8.60;4.55;;;11.40;99.90;;;;;;5067400;28;20044;-54
2022/04/27 08:01:08;;;;;;;8.38;4.82;;;11.50;99.90;;;;;;5068289;28;20044;-53
2022/04/27 08:03:34;;;;;;;9.80;3.95;;;11.70;99.90;;;;;;5067598;28;20048;-53
2022/04/27 08:06:02;;;;;;;3.75;2.55;;;13.00;99.90;;;;;;5068521;28;20083;-53
2022/04/27 08:08:29;;;;;;;6.75;3.40;;;12.10;99.90;;;;;;5069123;28;20052;-55
2022/04/27 08:10:55;;;;;;;6.60;1.67;;;12.50;99.90;;;;;;5069000;28;20036;-51
2022/04/27 08:13:21;;;;;;;5.75;1.50;;;12.60;99.90;;;;;;5068994;28;20047;-53
2022/04/27 08:15:47;;;;;;;3.58;0.80;;;13.00;99.90;;;;;;5068614;28;20048;-53
2022/04/27 08:18:12;;;;;;;2.90;1.25;;;13.00;99.90;;;;;;5068908;28;20119;-52
2022/04/27 08:23:29;;;;;;;2.00;0.50;;;12.90;97.30;;;;;;5069293;28;20048;-49
2022/04/27 08:25:57;;;;;;;2.63;0.60;;;12.50;96.10;;;;;;5069085;28;20063;-50
2022/04/27 08:28:23;;;;;;;2.28;0.50;;;11.90;95.20;;;;;;5068934;28;20115;-51
2022/04/27 08:30:50;;;;;;;9.80;0.90;;;12.00;95.00;;;;;;5067783;28;20453;-53
2022/04/27 08:33:16;;;;;;;5.15;0.60;;;11.90;93.70;;;;;;5069227;28;20036;-50
2022/04/27 08:35:42;;;;;;;3.58;1.00;;;11.80;92.30;;;;;;5067145;28;20056;-53
2022/04/27 08:38:09;;;;;;;3.65;0.60;;;11.90;91.90;;;;;;5068913;28;20048;-51
2022/04/27 08:40:40;;;;;;;2.35;0.60;;;12.20;92.00;;;;;;5068210;28;20044;-51
2022/04/27 08:43:06;;;;;;;3.22;0.80;;;11.80;92.60;;;;;;5068220;28;20499;-50
2022/04/27 08:45:33;;;;;;;2.20;0.40;;;12.10;91.80;;;;;;5068187;28;20044;-51
2022/04/27 08:47:59;;;;;;;6.03;0.77;;;12.10;91.40;;;;;;5068274;28;20049;-49
2022/04/27 08:50:26;;;;;;;3.67;0.77;;;12.20;91.30;;;;;;5068373;28;20043;-52
2022/04/27 08:52:52;;;;;;;3.22;0.60;;;12.60;91.20;;;;;;5068178;28;20475;-49
2022/04/27 08:55:19;;;;;;;4.25;0.68;;;12.90;89.90;;;;;;5068563;28;20131;-50
2022/04/27 08:57:45;;;;;;;5.05;0.45;;;12.90;86.00;;;;;;5068920;28;20040;-49
2022/04/27 09:00:15;;;;;;;4.43;0.60;;;13.10;84.20;;;;;;5068607;28;20053;-52
2022/04/27 09:02:42;;;;;;;2.85;0.60;;;13.30;83.70;;;;;;5068540;28;20056;-52
2022/04/27 09:05:15;;;;;;;2.90;0.60;;;14.10;85.70;;;;;;5068399;28;20055;-50
2022/04/27 09:07:43;;;;;;;2.47;0.70;;;13.90;81.10;;;;;;5068745;28;20050;-48
2022/04/27 09:10:14;;;;;;;3.85;0.50;;;14.00;79.70;;;;;;5068353;28;20124;-47
2022/04/27 09:12:52;;;;;;;2.22;0.47;;;14.20;78.50;;;;;;5068378;28;20041;-46
2022/04/27 09:15:20;;;;;;;2.25;0.70;;;14.40;77.60;;;;;;5072133;28;20098;-46
2022/04/27 09:20:54;;;;;;;2.83;0.52;;;;;;;;;;5072610;28;20044;-47
2022/04/27 09:23:24;;;;;;;4.82;0.80;;;15.00;72.50;;;;;;5071753;28;20048;-47
2022/04/27 09:25:55;;;;;;;1.98;0.57;;;15.50;76.10;;;;;;5071254;28;20391;-47
2022/04/27 09:28:31;;;;;;;1.45;0.40;;;15.90;70.90;;;;;;5071590;28;20036;-47
2022/04/27 09:30:59;;;;;;;2.45;0.63;;;16.20;71.50;;;;;;5070241;28;20123;-47
2022/04/27 09:33:39;;;;;;;2.13;0.80;;;16.40;71.60;;;;;;5069966;28;20060;-47
2022/04/27 09:36:37;;;;;;;3.03;0.65;;;16.70;65.90;;;;;;5070801;28;20063;-47
2022/04/27 09:39:06;;;;;;;3.65;0.75;;;16.80;63.50;;;;;;5080268;28;20831;-48
2022/04/27 09:41:38;;;;;;;3.33;0.55;;;16.80;64.10;;;;;;5071096;28;20037;-48
2022/04/27 09:44:04;;;;;;;6.00;0.60;;;16.70;64.20;;;;;;5070780;28;20036;-47
2022/04/27 09:46:29;;;;;;;3.28;0.52;;;16.60;64.20;;;;;;5071468;28;20186;-44
2022/04/27 09:49:04;;;;;;;3.58;0.95;;;17.00;64.00;;;;;;5071190;28;20471;-44
2022/04/27 09:51:31;;;;;;;3.08;0.65;;;17.20;62.50;;;;;;5071345;28;20045;-45
2022/04/27 09:54:00;;;;;;;2.15;0.93;;;17.10;63.90;;;;;;5070717;28;20076;-45
2022/04/27 09:56:33;;;;;;;2.72;0.40;;;17.20;63.50;;;;;;5071295;28;20044;-44
2022/04/27 09:59:03;;;;;;;2.78;0.40;;;17.20;61.80;;;;;;5071054;28;20044;-44
2022/04/27 10:01:35;;;;;;;3.42;0.63;;;17.50;62.90;;;;;;5071008;28;20053;-44
2022/04/27 10:04:04;;;;;;;6.95;0.95;;;17.40;62.90;;;;;;5070552;28;20028;-45
2022/04/27 10:06:34;;;;;;;6.32;0.68;;;17.40;63.50;;;;;;5070998;28;20731;-45
2022/04/27 10:09:02;;;;;;;4.65;0.73;;;17.40;62.10;;;;;;5070747;28;20512;-48
2022/04/27 10:11:29;;;;;;;4.95;0.65;;;17.40;62.90;;;;;;5070497;28;20111;-44
2022/04/27 10:13:57;;;;;;;3.42;0.60;;;17.60;62.20;;;;;;5070481;28;20072;-45
2022/04/27 10:16:25;;;;;;;2.88;0.60;;;17.50;61.70;;;;;;5070307;28;20091;-45
2022/04/27 10:18:51;;;;;;;4.40;0.60;;;17.40;62.30;;;;;;5070392;28;20044;-45
2022/04/27 10:21:43;;;;;;;4.10;1.00;;;17.40;61.60;;;;;;5070165;28;20052;-45
2022/04/27 10:24:12;;;;;;;1.85;0.50;;;17.20;58.50;;;;;;5069178;28;20071;-45
2022/04/27 10:26:38;;;;;;;3.83;0.60;;;17.00;60.60;;;;;;5069370;28;20040;-45
2022/04/27 10:29:05;;;;;;;5.18;0.70;;;17.10;61.70;;;;;;5070015;28;20055;-46
2022/04/27 10:31:40;;;;;;;6.32;0.90;;;17.10;61.10;;;;;;5069891;28;20051;-46
2022/04/27 10:34:21;;;;;;;3.80;0.68;;;17.00;59.10;;;;;;5069901;28;20051;-46
2022/04/27 10:36:54;;;;;;;3.78;0.70;;;17.10;58.80;;;;;;5070109;28;20060;-44
2022/04/27 10:39:28;;;;;;;4.00;0.68;;;17.40;59.00;;;;;;5069994;28;20044;-46
2022/04/27 10:42:17;;;;;;;5.47;0.85;;;17.60;59.00;;;;;;5069586;28;20059;-45
2022/04/27 10:44:53;;;;;;;2.00;0.70;;;17.70;59.00;;;;;;5069499;28;20052;-44
2022/04/27 10:47:20;;;;;;;3.97;0.55;;;17.80;58.80;;;;;;5069532;28;20735;-45
2022/04/27 10:49:48;;;;;;;2.38;0.77;;;17.60;60.30;;;;;;5069722;28;20045;-48
2022/04/27 10:52:13;;;;;;;5.60;0.73;;;17.40;60.30;;;;;;5069498;28;20055;-45
2022/04/27 10:54:40;;;;;;;2.97;0.80;;;17.30;60.60;;;;;;5067988;28;20044;-46
2022/04/27 10:57:15;;;;;;;1.70;0.60;;;17.10;60.50;;;;;;5069333;28;20085;-45
2022/04/27 10:59:56;;;;;;;5.07;1.02;;;17.30;59.40;;;;;;5069618;28;20376;-44
2022/04/27 11:02:35;;;;;;;3.80;0.80;;;17.00;58.30;;;;;;5069366;28;20112;-45
2022/04/27 11:05:18;;;;;;;2.47;0.65;;;17.40;59.50;;;;;;5069735;28;20049;-44
2022/04/27 11:08:03;;;;;;;2.00;0.70;;;17.10;60.00;;;;;;5069995;28;20111;-44
2022/04/27 11:10:28;;;;;;;2.70;0.65;;;17.10;61.10;;;;;;5069749;28;20084;-45
2022/04/27 11:12:56;;;;;;;4.00;0.77;;;17.20;61.60;;;;;;5069970;28;20087;-45
2022/04/27 11:15:26;;;;;;;4.63;0.65;;;17.20;61.40;;;;;;5069473;28;20044;-44
2022/04/27 11:18:01;;;;;;;3.35;0.82;;;17.10;61.30;;;;;;5069866;28;20380;-45
2022/04/27 11:20:36;;;;;;;6.57;1.52;;;17.00;59.30;;;;;;5068929;28;20043;-45
2022/04/27 11:23:07;;;;;;;5.13;0.75;;;17.10;59.20;;;;;;5068552;28;20051;-45
2022/04/27 11:25:38;;;;;;;3.37;1.17;;;17.20;59.90;;;;;;5069166;28;20057;-44
2022/04/27 11:28:06;;;;;;;5.65;0.85;;;17.40;60.00;;;;;;5068994;28;20506;-45
2022/04/27 11:30:32;;;;;;;6.95;0.80;;;17.40;59.30;;;;;;5068848;28;20434;-45
2022/04/27 11:33:00;;;;;;;6.63;1.58;;;17.50;59.20;;;;;;5068858;28;20044;-46
2022/04/27 11:35:47;;;;;;;3.95;0.98;;;17.40;58.50;;;;;;5068375;28;20060;-44
2022/04/27 11:38:17;;;;;;;3.88;0.90;;;17.40;54.00;;;;;;5068669;28;20049;-44
2022/04/27 11:40:44;;;;;;;4.82;0.75;;;17.20;57.00;;;;;;5068847;28;20119;-45
2022/04/27 11:43:10;;;;;;;3.95;0.80;;;17.30;58.10;;;;;;5067388;28;20045;-45
2022/04/27 11:45:36;;;;;;;5.57;0.88;;;17.50;58.10;;;;;;5068669;28;20048;-44
2022/04/27 11:48:03;;;;;;;2.90;0.93;;;17.60;58.20;;;;;;5068417;28;20498;-45
2022/04/27 11:50:31;;;;;;;5.57;0.88;;;17.70;59.10;;;;;;5068778;28;20053;-45
2022/04/27 11:53:08;;;;;;;4.68;0.70;;;17.80;59.80;;;;;;5068824;28;20048;-45
2022/04/27 11:55:35;;;;;;;5.68;0.88;;;17.80;56.60;;;;;;5068729;28;20119;-46
2022/04/27 11:58:02;;;;;;;5.18;1.95;;;17.90;58.60;;;;;;5066792;28;20395;-45
2022/04/27 12:00:29;;;;;;;6.63;0.90;;;17.90;59.10;;;;;;5068309;28;20047;-45
2022/04/27 12:03:05;;;;;;;2.65;0.60;;;18.00;59.20;;;;;;5068239;28;20040;-45
2022/04/27 12:05:33;;;;;;;5.10;1.25;;;18.00;58.50;;;;;;5067957;28;20631;-45
2022/04/27 12:08:01;;;;;;;11.00;1.52;;;17.80;58.80;;;;;;5068258;28;20045;-45
2022/04/27 12:10:29;;;;;;;7.10;1.33;;;17.80;59.50;;;;;;5067956;28;20047;-44
2022/04/27 12:12:59;;;;;;;7.90;1.45;;;17.90;60.00;;;;;;5067822;28;20479;-45
2022/04/27 12:15:26;;;;;;;4.90;1.23;;;17.70;60.60;;;;;;5067709;28;20041;-44
2022/04/27 12:17:57;;;;;;;5.40;1.40;;;17.40;60.70;;;;;;5068024;28;20838;-46
2022/04/27 12:20:31;;;;;;;6.70;1.63;;;17.20;59.50;;;;;;5067973;28;20045;-47
2022/04/27 12:23:02;;;;;;;5.50;1.23;;;17.20;61.60;;;;;;5067466;28;20044;-46
2022/04/27 12:25:38;;;;;;;10.30;1.45;;;17.10;61.60;;;;;;5066471;28;20491;-45
2022/04/27 12:28:06;;;;;;;12.13;2.13;;;17.00;60.60;;;;;;5067877;28;20080;-45
2022/04/27 12:30:44;;;;;;;8.30;1.25;;;16.90;62.70;;;;;;5067593;28;20391;-44
2022/04/27 12:33:14;;;;;;;8.48;1.52;;;16.80;61.80;;;;;;5067852;28;20099;-45
2022/04/27 12:38:29;;;;;;;8.88;1.20;;;16.30;64.60;;;;;;5067672;28;20063;-44
2022/04/27 12:40:56;;;;;;;9.82;2.05;;;16.50;65.50;;;;;;5067933;28;20040;-46
2022/04/27 12:43:24;;;;;;;7.18;1.23;;;16.30;66.00;;;;;;5067831;28;20048;-44
2022/04/27 12:46:08;;;;;;;12.93;2.17;;;15.80;65.80;;;;;;5068131;28;20098;-44
2022/04/27 12:48:35;;;;;;;9.63;1.42;;;15.80;64.20;;;;;;5066971;28;20051;-44
2022/04/27 12:51:05;;;;;;;10.77;2.10;;;15.70;65.80;;;;;;5068173;28;20044;-46
2022/04/27 12:53:32;;;;;;;9.68;1.67;;;15.70;64.10;;;;;;5067969;28;20040;-44
2022/04/27 12:56:08;;;;;;;8.38;1.02;;;15.60;65.20;;;;;;5068034;28;20044;-45
2022/04/27 12:58:34;;;;;;;9.93;2.03;;;15.70;64.10;;;;;;5067690;28;20052;-44
2022/04/27 13:01:00;;;;;;;7.53;1.08;;;15.90;66.60;;;;;;5067652;28;20048;-44
2022/04/27 13:03:26;;;;;;;7.93;1.63;;;16.00;66.20;;;;;;5067608;28;20189;-44
2022/04/27 13:05:52;;;;;;;7.60;1.63;;;16.10;66.00;;;;;;5067991;28;20090;-44
2022/04/27 13:08:18;;;;;;;11.68;1.83;;;16.20;65.80;;;;;;5067493;28;20041;-45